Time;durP1;ratioP1;P1;durP2;ratioP2;P2;SDS_P1;SDS_P2;PMS_P1;PMS_P2;Temp;Humidity;BMP_temperature;BMP_pressure;BME280_temperature;BME280_humidity;BME280_pressure;Samples;Min_cycle;Max_cycle;Signal;HPM_P1;HPM_P2
2022/05/31 00:01:47;;;;;;;2.55;2.15;;;;;;;;;;5092505;28;20090;-68
2022/05/31 00:04:13;;;;;;;2.63;1.90;;;;;;;;;;5092429;28;20040;-68
2022/05/31 00:06:40;;;;;;;3.63;2.00;;;;;;;;;;5092283;28;20441;-68
2022/05/31 00:09:06;;;;;;;3.15;2.10;;;;;;;;;;5092527;28;20189;-68
2022/05/31 00:11:33;;;;;;;2.17;1.98;;;;;;;;;;5092277;28;20087;-68
2022/05/31 00:13:59;;;;;;;2.78;2.25;;;;;;;;;;5092166;28;20131;-68
2022/05/31 00:16:26;;;;;;;1.80;1.70;;;;;;;;;;5092115;28;20480;-68
2022/05/31 00:18:53;;;;;;;3.08;2.20;;;;;;;;;;5092367;28;20714;-68
2022/05/31 00:21:22;;;;;;;3.00;2.00;;;;;;;;;;5092335;28;20082;-68
2022/05/31 00:23:49;;;;;;;2.85;2.05;;;;;;;;;;5092372;28;20087;-68
2022/05/31 00:26:15;;;;;;;1.65;1.55;;;;;;;;;;5092177;28;20076;-68
2022/05/31 00:28:41;;;;;;;2.10;2.00;;;;;;;;;;5092275;28;20083;-68
2022/05/31 00:31:08;;;;;;;2.53;2.10;;;;;;;;;;5092187;28;20076;-69
2022/05/31 00:33:35;;;;;;;3.92;1.92;;;;;;;;;;5092216;28;20059;-68
2022/05/31 00:36:02;;;;;;;4.20;2.13;;;;;;;;;;5092182;28;20044;-68
2022/05/31 00:38:28;;;;;;;2.00;1.80;;;;;;;;;;5091834;28;20523;-68
2022/05/31 00:41:23;;;;;;;4.50;2.10;;;;;;;;;;5092097;28;20086;-69
2022/05/31 00:43:41;;;;;;;2.15;1.92;;;;;;;;;;5091663;28;20131;-68
2022/05/31 00:46:07;;;;;;;2.17;1.60;;;;;;;;;;5092049;28;20044;-68
2022/05/31 00:48:37;;;;;;;3.38;1.90;;;;;;;;;;5091764;28;20084;-68
2022/05/31 00:51:09;;;;;;;2.75;1.92;;;;;;;;;;5092015;28;20084;-68
2022/05/31 00:53:51;;;;;;;2.15;1.95;;;;;;;;;;5091620;28;20094;-68
2022/05/31 00:56:19;;;;;;;2.17;1.73;;;;;;;;;;5092184;28;20059;-68
2022/05/31 00:58:58;;;;;;;2.05;1.60;;;;;;;;;;5090784;28;20044;-69
2022/05/31 01:01:24;;;;;;;2.42;1.63;;;;;;;;;;5091974;28;20071;-68
2022/05/31 01:03:51;;;;;;;3.28;1.58;;;;;;;;;;5091445;28;20484;-68
2022/05/31 01:06:18;;;;;;;2.78;1.92;;;;;;;;;;5091975;28;20075;-69
2022/05/31 01:08:46;;;;;;;1.88;1.60;;;;;;;;;;5094419;28;20060;-69
2022/05/31 01:11:13;;;;;;;3.35;1.55;;;;;;;;;;5096090;28;20075;-69
2022/05/31 01:13:40;;;;;;;2.35;1.88;;;;;;;;;;5095658;28;20052;-69
2022/05/31 01:16:08;;;;;;;1.80;1.70;;;;;;;;;;5095583;28;20087;-68
2022/05/31 01:18:35;;;;;;;3.30;1.60;;;;;;;;;;5095481;28;20792;-68
2022/05/31 01:21:02;;;;;;;2.67;1.80;;;;;;;;;;5095535;28;20052;-68
2022/05/31 01:23:39;;;;;;;3.85;2.33;;;;;;;;;;5094271;28;20070;-68
2022/05/31 01:26:13;;;;;;;2.08;1.88;;;;;;;;;;5095744;28;20135;-68
2022/05/31 01:28:58;;;;;;;3.35;2.20;;;;;;;;;;5095375;28;20079;-68
2022/05/31 01:31:57;;;;;;;2.60;1.88;;;;;;;;;;5095628;28;20134;-69
2022/05/31 01:34:32;;;;;;;2.63;2.08;;;;;;;;;;5070351;28;20139;-69
2022/05/31 01:36:59;;;;;;;2.33;1.80;;;;;;;;;;5075310;28;20102;-69
2022/05/31 01:39:39;;;;;;;3.33;2.25;;;;;;;;;;5089242;28;20052;-69
2022/05/31 01:42:09;;;;;;;3.22;2.38;;;;;;;;;;5095193;28;20088;-69
2022/05/31 01:44:37;;;;;;;2.35;2.00;;;;;;;;;;5095023;28;20075;-68
2022/05/31 01:47:04;;;;;;;3.20;2.00;;;;;;;;;;5095357;28;20373;-68
2022/05/31 01:49:33;;;;;;;2.92;2.30;;;;;;;;;;5095018;28;20471;-69
2022/05/31 01:52:00;;;;;;;2.45;1.70;;;;;;;;;;5095175;28;20575;-68
2022/05/31 01:54:26;;;;;;;2.60;1.95;;;;;;;;;;5094873;28;20534;-69
2022/05/31 01:56:55;;;;;;;2.33;1.90;;;;;;;;;;5094614;28;20078;-69
2022/05/31 01:59:22;;;;;;;2.97;2.78;;;;;;;;;;5095035;28;20079;-69
2022/05/31 02:01:48;;;;;;;3.33;2.53;;;;;;;;;;5093710;28;20048;-69
2022/05/31 02:04:15;;;;;;;3.97;2.38;;;;;;;;;;5094948;28;20067;-68
2022/05/31 02:06:42;;;;;;;3.05;2.38;;;;;;;;;;5094861;28;20199;-68
2022/05/31 02:09:10;;;;;;;3.92;2.55;;;;;;;;;;5094659;28;20086;-68
2022/05/31 02:11:37;;;;;;;2.75;2.10;;;;;;;;;;5094797;28;20048;-68
2022/05/31 02:14:04;;;;;;;4.07;2.58;;;;;;;;;;5094734;28;20082;-68
2022/05/31 02:16:30;;;;;;;2.97;2.00;;;;;;;;;;5088006;28;20423;-68
2022/05/31 02:19:18;;;;;;;5.30;2.65;;;;;;;;;;5093121;28;20084;-68
2022/05/31 02:21:44;;;;;;;4.80;2.10;;;;;;;;;;5094416;28;20070;-68
2022/05/31 02:24:12;;;;;;;3.72;1.67;;;;;;;;;;5094491;28;20075;-69
2022/05/31 02:26:41;;;;;;;3.00;1.73;;;;;;;;;;5094562;28;20048;-69
2022/05/31 02:29:09;;;;;;;2.72;1.60;;;;;;;;;;5094414;28;20459;-69
2022/05/31 02:31:36;;;;;;;2.85;2.10;;;;;;;;;;5094550;28;20095;-69
2022/05/31 02:34:02;;;;;;;2.37;2.00;;;;;;;;;;5094186;28;20471;-70
2022/05/31 02:36:29;;;;;;;3.55;2.40;;;;;;;;;;5094054;28;20826;-70
2022/05/31 02:38:55;;;;;;;3.85;2.17;;;;;;;;;;5094105;28;20471;-70
2022/05/31 02:41:22;;;;;;;3.30;1.77;;;;;;;;;;5094072;28;20158;-70
2022/05/31 02:43:49;;;;;;;2.22;2.03;;;;;;;;;;5093766;28;20079;-70
2022/05/31 02:46:15;;;;;;;3.42;2.20;;;;;;;;;;5094269;28;20127;-70
2022/05/31 02:48:42;;;;;;;3.75;2.05;;;;;;;;;;5094180;28;20048;-69
2022/05/31 02:51:08;;;;;;;2.95;2.03;;;;;;;;;;5093944;28;20101;-70
2022/05/31 02:53:34;;;;;;;2.72;1.98;;;;;;;;;;5093789;28;20565;-70
2022/05/31 02:56:01;;;;;;;2.38;1.98;;;;;;;;;;5093753;28;20090;-70
2022/05/31 02:58:27;;;;;;;4.90;2.53;;;;;;;;;;5093608;28;20083;-70
2022/05/31 03:00:54;;;;;;;3.83;2.13;;;;;;;;;;5093634;28;20093;-70
2022/05/31 03:03:21;;;;;;;3.97;2.10;;;;;;;;;;5093610;28;20040;-70
2022/05/31 03:05:49;;;;;;;3.20;1.88;;;;;;;;;;5093731;28;20058;-70
2022/05/31 03:08:16;;;;;;;2.50;1.98;;;;;;;;;;5093406;28;20526;-70
2022/05/31 03:10:48;;;;;;;2.70;1.88;;;;;;;;;;5092226;28;20071;-70
2022/05/31 03:13:16;;;;;;;2.22;1.85;;;;;;;;;;5093495;28;20075;-70
2022/05/31 03:15:43;;;;;;;4.18;2.20;;;;;;;;;;5093366;28;20072;-70
2022/05/31 03:18:13;;;;;;;3.22;2.03;;;;;;;;;;5093179;28;20048;-70
2022/05/31 03:20:42;;;;;;;2.88;2.17;;;;;;;;;;5093272;28;20048;-70
2022/05/31 03:23:14;;;;;;;3.67;2.30;;;;;;;;;;5093810;28;20052;-70
2022/05/31 03:25:42;;;;;;;3.40;2.47;;;;;;;;;;5093524;28;20131;-70
2022/05/31 03:28:09;;;;;;;4.82;2.33;;;;;;;;;;5093210;28;20086;-70
2022/05/31 03:30:36;;;;;;;3.90;2.33;;;;;;;;;;5092864;28;20048;-70
2022/05/31 03:33:04;;;;;;;4.28;2.30;;;;;;;;;;5093020;28;20048;-70
2022/05/31 03:35:30;;;;;;;3.60;1.90;;;;;;;;;;5093080;28;20056;-70
2022/05/31 03:37:57;;;;;;;2.17;1.95;;;;;;;;;;5093138;28;20131;-70
2022/05/31 03:43:08;;;;;;;2.17;1.98;;;;;;;;;;5092658;28;20091;-70
2022/05/31 03:45:35;;;;;;;3.05;2.00;;;;;;;;;;5093364;28;20072;-69
2022/05/31 03:48:02;;;;;;;1.90;1.80;;;;;;;;;;5092738;28;20056;-70
2022/05/31 03:50:28;;;;;;;2.53;1.90;;;;;;;;;;5092908;28;20102;-69
2022/05/31 03:52:55;;;;;;;2.65;1.95;;;;;;;;;;5092636;28;20484;-69
2022/05/31 03:55:22;;;;;;;1.95;1.80;;;;;;;;;;5092463;28;20534;-69
2022/05/31 03:57:49;;;;;;;2.50;2.30;;;;;;;;;;5092474;28;20511;-69
2022/05/31 04:00:16;;;;;;;2.30;1.98;;;;;;;;;;5092473;28;20040;-69
2022/05/31 04:02:42;;;;;;;3.17;2.25;;;;;;;;;;5092681;28;20124;-70
2022/05/31 04:05:09;;;;;;;2.95;1.90;;;;;;;;;;5092503;28;20151;-69
2022/05/31 04:07:36;;;;;;;2.33;1.70;;;;;;;;;;5092410;28;20044;-69
2022/05/31 04:10:03;;;;;;;5.10;1.90;;;;;;;;;;5092372;28;20512;-70
2022/05/31 04:12:30;;;;;;;2.42;1.77;;;;;;;;;;5092181;28;20075;-69
2022/05/31 04:14:57;;;;;;;3.13;2.03;;;;;;;;;;5092540;28;20060;-69
2022/05/31 04:17:23;;;;;;;2.08;1.90;;;;;;;;;;5092625;28;20471;-69
2022/05/31 04:19:50;;;;;;;2.63;1.70;;;;;;;;;;5091126;28;20436;-69
2022/05/31 04:22:16;;;;;;;3.85;2.42;;;;;;;;;;5092127;28;20055;-70
2022/05/31 04:24:43;;;;;;;3.53;1.90;;;;;;;;;;5092295;28;20072;-70
2022/05/31 04:27:14;;;;;;;4.03;2.22;;;;;;;;;;5092399;28;20098;-70
2022/05/31 04:29:40;;;;;;;3.75;2.30;;;;;;;;;;5092274;28;20461;-69
2022/05/31 04:32:07;;;;;;;2.25;1.85;;;;;;;;;;5092099;28;20158;-70
2022/05/31 04:34:34;;;;;;;4.45;2.25;;;;;;;;;;5091968;28;20566;-70
2022/05/31 04:37:00;;;;;;;4.43;2.08;;;;;;;;;;5091940;28;20043;-70
2022/05/31 04:39:27;;;;;;;3.95;1.90;;;;;;;;;;5091999;28;20080;-70
2022/05/31 04:41:53;;;;;;;3.13;1.90;;;;;;;;;;5090937;28;20083;-70
2022/05/31 04:44:20;;;;;;;2.38;2.00;;;;;;;;;;5092191;28;20074;-70
2022/05/31 04:46:48;;;;;;;2.80;2.10;;;;;;;;;;5092041;28;20468;-69
2022/05/31 04:49:14;;;;;;;2.70;2.20;;;;;;;;;;5090500;28;20130;-69
2022/05/31 04:51:41;;;;;;;1.65;1.50;;;;;;;;;;5091996;28;20115;-70
2022/05/31 04:54:08;;;;;;;2.97;1.98;;;;;;;;;;5092160;28;20083;-69
2022/05/31 04:56:34;;;;;;;3.38;2.40;;;;;;;;;;5091940;28;20109;-69
2022/05/31 04:59:01;;;;;;;2.83;2.10;;;;;;;;;;5091869;28;20087;-70
2022/05/31 05:01:28;;;;;;;3.65;2.28;;;;;;;;;;5091960;28;20124;-70
2022/05/31 05:03:55;;;;;;;3.78;1.70;;;;;;;;;;5091816;28;20048;-69
2022/05/31 05:06:29;;;;;;;1.80;1.70;;;;;;;;;;5091629;28;20044;-70
2022/05/31 05:08:55;;;;;;;2.17;1.92;;;;;;;;;;5091906;28;20445;-69
2022/05/31 05:11:22;;;;;;;2.25;1.80;;;;;;;;;;5091496;28;20076;-69
2022/05/31 05:13:50;;;;;;;2.95;2.05;;;;;;;;;;5091851;28;20475;-69
2022/05/31 05:16:17;;;;;;;4.03;2.05;;;;;;;;;;5091509;28;20075;-69
2022/05/31 05:18:44;;;;;;;2.47;1.90;;;;;;;;;;5091724;28;20131;-70
2022/05/31 05:21:12;;;;;;;2.83;1.90;;;;;;;;;;5091260;28;20492;-70
2022/05/31 05:23:38;;;;;;;;;;;;;;;;;;5092104;28;20093;-70
2022/05/31 05:26:05;;;;;;;3.92;2.00;;;;;;;;;;5091593;28;19924;-70
2022/05/31 05:31:21;;;;;;;1.92;1.65;;;;;;;;;;5091717;28;20084;-70
2022/05/31 05:33:48;;;;;;;4.68;2.20;;;;;;;;;;5089977;28;20048;-69
2022/05/31 05:36:15;;;;;;;3.25;2.05;;;;;;;;;;5091596;28;20079;-70
2022/05/31 05:38:42;;;;;;;2.08;1.70;;;;;;;;;;5091587;28;20452;-69
2022/05/31 05:41:09;;;;;;;2.05;1.60;;;;;;;;;;5091172;28;20075;-69
2022/05/31 05:43:35;;;;;;;2.20;1.35;;;;;;;;;;5091126;28;20079;-69
2022/05/31 05:46:02;;;;;;;3.47;1.70;;;;;;;;;;5091441;28;20040;-69
2022/05/31 05:48:28;;;;;;;3.38;1.70;;;;;;;;;;5091534;28;20468;-69
2022/05/31 05:50:55;;;;;;;1.85;1.48;;;;;;;;;;5091105;28;20087;-69
2022/05/31 05:53:21;;;;;;;4.13;2.28;;;;;;;;;;5093436;28;20079;-69
2022/05/31 05:55:47;;;;;;;3.30;1.58;;;;;;;;;;5094786;28;20078;-69
2022/05/31 05:58:14;;;;;;;1.77;1.63;;;;;;;;;;5095284;28;20071;-69
2022/05/31 06:00:48;;;;;;;1.77;1.67;;;;;;;;;;5094991;28;20066;-69
2022/05/31 06:03:18;;;;;;;2.28;1.65;;;;;;;;;;5095039;28;20147;-69
2022/05/31 06:05:46;;;;;;;2.47;1.80;;;;;;;;;;5095003;28;20499;-69
2022/05/31 06:08:20;;;;;;;2.22;1.23;;;;;;;;;;5094859;28;20076;-69
2022/05/31 06:11:06;;;;;;;3.83;2.40;;;;;;;;;;5094898;28;20082;-69
2022/05/31 06:13:39;;;;;;;5.13;2.00;;;;;;;;;;5094000;28;20074;-72
2022/05/31 06:16:07;;;;;;;2.13;1.70;;;;;;;;;;5094793;28;20480;-70
2022/05/31 06:18:40;;;;;;;2.22;1.70;;;;;;;;;;5094612;28;20051;-70
2022/05/31 06:21:07;;;;;;;3.70;1.80;;;;;;;;;;5094259;28;20098;-70
2022/05/31 06:23:35;;;;;;;4.32;1.70;;;;;;;;;;5093336;28;20078;-69
2022/05/31 06:26:01;;;;;;;;;;;;;;;;;;5080521;28;20459;-70
2022/05/31 06:28:27;;;;;;;2.50;1.50;;;;;;;;;;5090227;28;19970;-69
2022/05/31 06:30:54;;;;;;;4.60;1.83;;;;;;;;;;5090302;28;20068;-69
2022/05/31 06:33:20;;;;;;;4.75;2.10;;;;;;;;;;5090402;28;20071;-69
2022/05/31 06:35:47;;;;;;;1.98;1.42;;;;;;;;;;5093462;28;20409;-69
2022/05/31 06:38:16;;;;;;;4.72;1.70;;;;;;;;;;5093315;28;20079;-68
2022/05/31 06:40:43;;;;;;;4.70;1.33;;;;;;;;;;5092905;28;20109;-69
2022/05/31 06:43:09;;;;;;;2.85;1.50;;;;;;;;;;5089010;28;20044;-68
2022/05/31 06:45:43;;;;;;;7.65;1.70;;;;;;;;;;5073530;28;20377;-68
2022/05/31 06:48:10;;;;;;;2.05;1.58;;;;;;;;;;5093039;28;20072;-69
2022/05/31 06:50:36;;;;;;;4.82;1.98;;;;;;;;;;5081706;28;20080;-68
2022/05/31 06:58:41;;;;;;;3.33;1.40;;;;;;;;;;5092455;28;20075;-69
2022/05/31 07:01:07;;;;;;;2.88;1.58;;;;;;;;;;5093013;28;20075;-70
2022/05/31 07:03:33;;;;;;;3.50;1.92;;;;;;;;;;5093397;28;20047;-69
2022/05/31 07:06:00;;;;;;;2.22;1.60;;;;;;;;;;5092494;28;20572;-71
2022/05/31 07:08:26;;;;;;;2.47;1.33;;;;;;;;;;5093110;28;20465;-70
2022/05/31 07:10:56;;;;;;;6.53;2.40;;;;;;;;;;5093537;28;20047;-69
2022/05/31 07:13:23;;;;;;;1.95;1.70;;;;;;;;;;5093758;28;20090;-65
2022/05/31 07:15:51;;;;;;;2.50;1.90;;;;;;;;;;5092925;28;20131;-67
2022/05/31 07:18:37;;;;;;;3.03;1.60;;;;;;;;;;5089343;28;20043;-66
2022/05/31 07:21:03;;;;;;;3.15;1.50;;;;;;;;;;5092234;28;20040;-66
2022/05/31 07:23:30;;;;;;;1.70;1.60;;;;;;;;;;5091833;28;20091;-66
2022/05/31 07:25:58;;;;;;;1.67;1.58;;;;;;;;;;5092154;28;20075;-67
2022/05/31 07:28:44;;;;;;;4.20;1.52;;;;;;;;;;5088747;28;20542;-69
2022/05/31 07:31:11;;;;;;;2.92;2.40;;;;;;;;;;5093267;28;20083;-70
2022/05/31 07:33:38;;;;;;;3.90;2.13;;;;;;;;;;5068206;28;20048;-73
2022/05/31 07:36:05;;;;;;;;;;;;;;;;;;5090388;28;20101;-72
2022/05/31 07:38:32;;;;;;;2.28;1.80;;;;;;;;;;5092918;28;19967;-73
2022/05/31 07:40:59;;;;;;;1.85;1.73;;;;;;;;;;5092424;28;20080;-73
2022/05/31 07:43:25;;;;;;;2.25;1.60;;;;;;;;;;5092698;28;20072;-70
2022/05/31 07:46:05;;;;;;;4.18;2.42;;;;;;;;;;5093065;28;20040;-71
2022/05/31 07:48:34;;;;;;;3.85;1.80;;;;;;;;;;5092976;28;20048;-70
2022/05/31 07:51:01;;;;;;;2.40;1.85;;;;;;;;;;5092645;28;20161;-71
2022/05/31 07:53:27;;;;;;;1.63;1.52;;;;;;;;;;5092927;28;20082;-72
2022/05/31 07:55:59;;;;;;;1.73;1.50;;;;;;;;;;5092813;28;20052;-70
2022/05/31 07:58:32;;;;;;;1.52;1.42;;;;;;;;;;5092933;28;20105;-72
2022/05/31 08:00:59;;;;;;;2.05;1.60;;;;;;;;;;5092529;28;20466;-70
2022/05/31 08:03:25;;;;;;;2.20;1.73;;;;;;;;;;5092328;28;20510;-69
2022/05/31 08:05:52;;;;;;;2.83;1.85;;;;;;;;;;5092395;28;20040;-67
2022/05/31 08:08:23;;;;;;;2.65;1.40;;;;;;;;;;5092764;28;20044;-66
2022/05/31 08:11:06;;;;;;;2.38;1.30;;;;;;;;;;5092621;28;20047;-67
2022/05/31 08:13:32;;;;;;;1.20;1.10;;;;;;;;;;5092695;28;20048;-68
2022/05/31 08:16:00;;;;;;;2.60;1.60;;;;;;;;;;5091515;28;20048;-67
2022/05/31 08:18:26;;;;;;;3.13;2.10;;;;;;;;;;5092407;28;20072;-66
2022/05/31 08:21:00;;;;;;;2.58;2.15;;;;;;;;;;5092469;28;20373;-67
2022/05/31 08:23:27;;;;;;;3.63;2.25;;;;;;;;;;5092416;28;20044;-69
2022/05/31 08:25:54;;;;;;;2.00;1.60;;;;;;;;;;5092416;28;20071;-69
2022/05/31 08:28:21;;;;;;;1.40;1.30;;;;;;;;;;5092584;28;20093;-69
2022/05/31 08:30:53;;;;;;;1.75;1.08;;;;;;;;;;5091972;28;20055;-70
2022/05/31 08:33:20;;;;;;;0.80;0.80;;;;;;;;;;5069793;28;20106;-68
2022/05/31 08:35:46;;;;;;;0.75;0.75;;;;;;;;;;5077821;28;20079;-69
2022/05/31 08:38:28;;;;;;;1.00;0.80;;;;;;;;;;5091810;28;20056;-69
2022/05/31 08:40:55;;;;;;;0.80;0.70;;;;;;;;;;5092116;28;20509;-69
2022/05/31 08:43:26;;;;;;;0.80;0.80;;;;;;;;;;5091807;28;20051;-68
2022/05/31 08:45:53;;;;;;;2.00;0.82;;;;;;;;;;5092007;28;20044;-69
2022/05/31 08:48:33;;;;;;;0.63;0.57;;;;;;;;;;5092032;28;20044;-68
2022/05/31 08:56:59;;;;;;;0.88;0.47;;;;;;;;;;5066569;28;20079;-69
2022/05/31 08:59:29;;;;;;;0.93;0.70;;;;;;;;;;5090432;28;20044;-70
2022/05/31 09:01:58;;;;;;;1.88;0.85;;;;;;;;;;5091193;28;20072;-69
2022/05/31 09:04:27;;;;;;;0.60;0.40;;;;;;;;;;5090944;28;20043;-69
2022/05/31 09:06:56;;;;;;;1.27;0.80;;;;;;;;;;5091806;28;20386;-69
2022/05/31 09:09:26;;;;;;;0.50;0.50;;;;;;;;;;5091562;28;20074;-69
2022/05/31 09:11:56;;;;;;;0.80;0.80;;;;;;;;;;5090733;28;20083;-69
2022/05/31 09:14:28;;;;;;;0.70;0.60;;;;;;;;;;5091753;28;20084;-69
2022/05/31 09:16:59;;;;;;;0.77;0.77;;;;;;;;;;5091551;28;20080;-69
2022/05/31 09:19:38;;;;;;;0.73;0.68;;;;;;;;;;5091520;28;20079;-69
2022/05/31 09:22:07;;;;;;;1.85;0.77;;;;;;;;;;5091383;28;20070;-69
2022/05/31 09:24:37;;;;;;;0.80;0.70;;;;;;;;;;5091423;28;20480;-69
2022/05/31 09:27:06;;;;;;;1.58;0.70;;;;;;;;;;5091348;28;20079;-69
2022/05/31 09:30:08;;;;;;;3.80;1.15;;;;;;;;;;5095745;28;20044;-68
2022/05/31 09:32:52;;;;;;;1.85;0.70;;;;;;;;;;5093129;28;20139;-69
2022/05/31 09:35:38;;;;;;;1.52;0.77;;;;;;;;;;5094748;28;20067;-69
2022/05/31 09:38:04;;;;;;;1.02;0.70;;;;;;;;;;5095697;28;20090;-69
2022/05/31 09:40:31;;;;;;;1.20;0.60;;;;;;;;;;5095277;28;20074;-69
2022/05/31 09:43:00;;;;;;;1.10;0.57;;;;;;;;;;5095140;28;20490;-69
2022/05/31 09:45:28;;;;;;;0.80;0.80;;;;;;;;;;5095280;28;20132;-69
2022/05/31 09:47:56;;;;;;;2.53;1.80;;;;;;;;;;5095010;28;20089;-69
2022/05/31 09:50:25;;;;;;;1.00;0.57;;;;;;;;;;5095309;28;20064;-70
2022/05/31 09:52:57;;;;;;;4.53;3.85;;;;;;;;;;5094885;28;20055;-70
2022/05/31 09:58:16;;;;;;;3.90;3.50;;;;;;;;;;5094702;28;20078;-70
2022/05/31 10:01:01;;;;;;;3.08;1.60;;;;;;;;;;5095179;28;20086;-70
2022/05/31 10:03:32;;;;;;;1.83;1.00;;;;;;;;;;5067103;28;20470;-70
2022/05/31 10:06:06;;;;;;;1.58;1.48;;;;;;;;;;5095030;28;20075;-70
2022/05/31 10:08:33;;;;;;;2.35;1.92;;;;;;;;;;5094670;28;20048;-70
2022/05/31 10:11:04;;;;;;;2.42;1.05;;;;;;;;;;5094941;28;20101;-70
2022/05/31 10:13:32;;;;;;;0.82;0.70;;;;;;;;;;5094661;28;20044;-70
2022/05/31 10:16:07;;;;;;;1.23;1.13;;;;;;;;;;5093695;28;20101;-70
2022/05/31 10:18:44;;;;;;;4.63;3.40;;;;;;;;;;5088900;28;20136;-70
2022/05/31 10:21:11;;;;;;;1.75;1.27;;;;;;;;;;5074541;28;20076;-70
2022/05/31 10:23:41;;;;;;;3.47;2.33;;;;;;;;;;5092667;28;20075;-70
2022/05/31 10:26:07;;;;;;;1.83;1.20;;;;;;;;;;5094717;28;20044;-71
2022/05/31 10:28:40;;;;;;;3.55;2.78;;;;;;;;;;5094239;28;20475;-70
2022/05/31 10:31:18;;;;;;;0.82;0.80;;;;;;;;;;5093779;28;20492;-70
2022/05/31 10:34:12;;;;;;;0.50;0.50;;;;;;;;;;5094473;28;20110;-71
2022/05/31 10:36:48;;;;;;;0.77;0.75;;;;;;;;;;5093418;28;20541;-69
2022/05/31 10:39:18;;;;;;;0.95;0.63;;;;;;;;;;5093102;28;20094;-69
2022/05/31 10:41:44;;;;;;;0.95;0.75;;;;;;;;;;5093749;28;20488;-69
2022/05/31 10:44:35;;;;;;;0.90;0.90;;;;;;;;;;5093927;28;20059;-69
2022/05/31 10:47:09;;;;;;;0.93;0.70;;;;;;;;;;5094317;28;20044;-69
2022/05/31 10:49:36;;;;;;;1.45;0.65;;;;;;;;;;5089256;28;20125;-69
2022/05/31 10:52:18;;;;;;;1.17;0.60;;;;;;;;;;5093755;28;20097;-69
2022/05/31 10:54:48;;;;;;;1.65;0.88;;;;;;;;;;5094016;28;20090;-69
2022/05/31 10:57:20;;;;;;;0.90;0.88;;;;;;;;;;5093192;28;20052;-69
2022/05/31 10:59:52;;;;;;;0.98;0.63;;;;;;;;;;5093683;28;20047;-70
2022/05/31 11:02:19;;;;;;;1.02;0.60;;;;;;;;;;5093171;28;20539;-70
2022/05/31 11:04:48;;;;;;;0.63;0.60;;;;;;;;;;5093742;28;20066;-70
2022/05/31 11:07:20;;;;;;;0.73;0.40;;;;;;;;;;5093831;28;20087;-70
2022/05/31 11:12:59;;;;;;;1.55;0.70;;;;;;;;;;5093617;28;20126;-69
2022/05/31 11:15:49;;;;;;;0.65;0.65;;;;;;;;;;5093311;28;20097;-70
2022/05/31 11:18:34;;;;;;;0.93;0.75;;;;;;;;;;5092980;28;20514;-69
2022/05/31 11:21:10;;;;;;;0.63;0.63;;;;;;;;;;5087672;28;20040;-69
2022/05/31 11:23:55;;;;;;;0.95;0.70;;;;;;;;;;5092999;28;20051;-69
2022/05/31 11:26:22;;;;;;;1.00;0.80;;;;;;;;;;5093552;28;20082;-70
2022/05/31 11:29:23;;;;;;;1.30;0.90;;;;;;;;;;5093443;28;20399;-70
2022/05/31 11:32:02;;;;;;;1.00;1.00;;;;;;;;;;5093047;28;20566;-70
2022/05/31 11:34:37;;;;;;;0.90;0.90;;;;;;;;;;5086941;28;20051;-70
2022/05/31 11:37:04;;;;;;;1.15;0.80;;;;;;;;;;5092961;28;20075;-70
2022/05/31 11:39:31;;;;;;;;;;;;;;;;;;5093524;28;20059;-69
2022/05/31 11:42:00;;;;;;;1.50;1.00;;;;;;;;;;5093086;28;19920;-70
2022/05/31 11:44:33;;;;;;;2.08;1.20;;;;;;;;;;5092290;28;20048;-69
2022/05/31 11:47:04;;;;;;;2.38;1.00;;;;;;;;;;5092436;28;20082;-69
2022/05/31 11:49:31;;;;;;;0.95;0.90;;;;;;;;;;5092756;28;20052;-69
2022/05/31 11:52:12;;;;;;;0.90;0.90;;;;;;;;;;5092999;28;20079;-69
2022/05/31 11:58:10;;;;;;;1.52;1.42;;;;;;;;;;5092870;28;20079;-69
2022/05/31 12:00:42;;;;;;;1.20;1.13;;;;;;;;;;5092612;28;20144;-69
2022/05/31 12:03:31;;;;;;;2.53;1.23;;;;;;;;;;5092447;28;20071;-69
2022/05/31 12:06:06;;;;;;;1.63;1.30;;;;;;;;;;5092392;28;20074;-69
2022/05/31 12:08:36;;;;;;;3.05;1.80;;;;;;;;;;5092447;28;20082;-70
2022/05/31 12:11:14;;;;;;;1.90;1.80;;;;;;;;;;5077283;28;20044;-70
2022/05/31 12:13:44;;;;;;;2.47;1.88;;;;;;;;;;5085963;28;20411;-70
2022/05/31 12:16:12;;;;;;;3.00;2.70;;;;;;;;;;5087027;28;20462;-70
2022/05/31 12:18:53;;;;;;;4.75;2.75;;;;;;;;;;5091411;28;20571;-69
2022/05/31 12:21:32;;;;;;;3.40;3.00;;;;;;;;;;5090725;28;20044;-69
2022/05/31 12:24:04;;;;;;;5.45;2.92;;;;;;;;;;5091783;28;20068;-69
2022/05/31 12:26:56;;;;;;;2.78;2.40;;;;;;;;;;5092224;28;20079;-70
2022/05/31 12:29:33;;;;;;;3.40;2.50;;;;;;;;;;5091265;28;20087;-69
2022/05/31 12:32:00;;;;;;;;;;;;;;;;;;5091408;28;20127;-67
2022/05/31 12:34:30;;;;;;;2.83;2.63;;;;;;;;;;5088089;28;20428;-67
2022/05/31 12:36:59;;;;;;;3.00;2.70;;;;;;;;;;5091585;28;20052;-70
2022/05/31 12:39:33;;;;;;;2.70;2.45;;;;;;;;;;5089084;28;20048;-70
2022/05/31 12:42:26;;;;;;;4.07;2.38;;;;;;;;;;5087129;28;20044;-70
2022/05/31 12:45:12;;;;;;;3.17;2.53;;;;;;;;;;5090824;28;20055;-69
2022/05/31 12:47:39;;;;;;;2.13;1.50;;;;;;;;;;5091781;28;20075;-70
2022/05/31 12:50:05;;;;;;;;;;;;;;;;;;5092374;28;20079;-69
2022/05/31 12:52:53;;;;;;;3.08;2.08;;;;;;;;;;5075641;28;20442;-70
2022/05/31 12:55:22;;;;;;;3.15;1.70;;;;;;;;;;5083346;28;20076;-70
2022/05/31 13:00:48;;;;;;;1.65;1.55;;;;;;;;;;5089515;28;20093;-70
2022/05/31 13:03:33;;;;;;;4.53;1.83;;;;;;;;;;5090813;28;20121;-70
2022/05/31 13:06:07;;;;;;;2.10;1.50;;;;;;;;;;5080696;28;20102;-69
2022/05/31 13:08:52;;;;;;;2.20;1.70;;;;;;;;;;5080332;28;20118;-68
2022/05/31 13:20:23;;;;;;;1.90;1.23;;;;;;;;;;5088971;28;20553;-71
2022/05/31 13:22:53;;;;;;;2.30;1.30;;;;;;;;;;5081115;28;20070;-70
2022/05/31 13:25:25;;;;;;;1.35;1.00;;;;;;;;;;5086302;28;20109;-68
2022/05/31 13:27:54;;;;;;;2.63;1.15;;;;;;;;;;5081951;28;20098;-68
2022/05/31 13:30:21;;;;;;;2.65;1.02;;;;;;;;;;5089940;28;20086;-68
2022/05/31 13:32:48;;;;;;;2.30;1.10;;;;;;;;;;5089392;28;20048;-68
2022/05/31 13:35:15;;;;;;;;;;;;;;;;;;5090599;28;20055;-68
2022/05/31 13:37:54;;;;;;;2.65;1.23;;;;;;;;;;5091615;28;19920;-68
2022/05/31 13:40:22;;;;;;;1.98;1.30;;;;;;;;;;5091170;28;20503;-68
2022/05/31 13:42:49;;;;;;;2.30;1.40;;;;;;;;;;5091310;28;20096;-68
2022/05/31 13:45:20;;;;;;;1.40;1.30;;;;;;;;;;5091615;28;20079;-67
2022/05/31 13:47:58;;;;;;;3.13;1.38;;;;;;;;;;5091557;28;20076;-67
2022/05/31 13:50:26;;;;;;;1.40;1.13;;;;;;;;;;5091550;28;20098;-67
2022/05/31 13:52:52;;;;;;;1.50;1.33;;;;;;;;;;5091456;28;20075;-68
2022/05/31 13:55:23;;;;;;;2.53;1.52;;;;;;;;;;5091427;28;20097;-68
2022/05/31 13:57:52;;;;;;;4.13;1.10;;;;;;;;;;5091337;28;20048;-67
2022/05/31 14:00:31;;;;;;;1.70;0.80;;;;;;;;;;5091415;28;20048;-68
2022/05/31 14:03:06;;;;;;;3.42;0.93;;;;;;;;;;5091080;28;20068;-68
2022/05/31 14:05:41;;;;;;;3.38;1.05;;;;;;;;;;5087357;28;20080;-67
2022/05/31 14:08:09;;;;;;;2.75;1.23;;;;;;;;;;5073996;28;20045;-67
2022/05/31 14:10:45;;;;;;;1.27;1.05;;;;;;;;;;5090733;28;20052;-68
2022/05/31 14:13:18;;;;;;;2.63;1.08;;;;;;;;;;5089867;28;20052;-67
2022/05/31 14:15:45;;;;;;;1.15;1.05;;;;;;;;;;5093729;28;20123;-67
2022/05/31 14:18:13;;;;;;;2.67;1.10;;;;;;;;;;5094885;28;20062;-69
2022/05/31 14:20:41;;;;;;;1.30;0.82;;;;;;;;;;5089772;28;20084;-69
2022/05/31 14:23:09;;;;;;;1.75;0.98;;;;;;;;;;5074727;28;20084;-69
2022/05/31 14:25:39;;;;;;;1.70;0.75;;;;;;;;;;5094691;28;20131;-69
2022/05/31 14:28:13;;;;;;;2.38;0.90;;;;;;;;;;5094621;28;20048;-69
2022/05/31 14:30:48;;;;;;;1.35;0.80;;;;;;;;;;5090601;28;20087;-69
2022/05/31 14:33:15;;;;;;;2.60;1.00;;;;;;;;;;5077258;28;20488;-68
2022/05/31 14:35:46;;;;;;;1.80;0.90;;;;;;;;;;5093205;28;20060;-68
2022/05/31 14:38:17;;;;;;;1.35;0.93;;;;;;;;;;5092833;28;20098;-66
2022/05/31 14:40:49;;;;;;;3.95;1.38;;;;;;;;;;5089895;28;20094;-67
2022/05/31 14:43:26;;;;;;;2.25;1.20;;;;;;;;;;5091523;28;20131;-68
2022/05/31 14:45:52;;;;;;;;;;;;;;;;;;5093741;28;20054;-69
2022/05/31 14:48:38;;;;;;;1.83;0.80;;;;;;;;;;5090553;28;19926;-69
2022/05/31 14:51:14;;;;;;;1.75;0.85;;;;;;;;;;5093372;28;20143;-68
2022/05/31 14:53:41;;;;;;;1.67;0.80;;;;;;;;;;5093331;28;20558;-67
2022/05/31 14:56:26;;;;;;;1.02;0.75;;;;;;;;;;5093143;28;20093;-67
2022/05/31 14:58:55;;;;;;;1.80;0.90;;;;;;;;;;5093365;28;20097;-69
2022/05/31 15:01:34;;;;;;;1.60;0.80;;;;;;;;;;5093152;28;20044;-68
2022/05/31 15:04:06;;;;;;;1.83;1.25;;;;;;;;;;5093290;28;20052;-68
2022/05/31 15:06:37;;;;;;;0.98;0.70;;;;;;;;;;5089196;28;20091;-66
2022/05/31 15:09:05;;;;;;;2.33;1.00;;;;;;;;;;5092808;28;20079;-66
2022/05/31 15:19:48;;;;;;;1.58;0.60;;;;;;;;;;5092594;28;20109;-68
2022/05/31 15:22:17;;;;;;;1.80;0.95;;;;;;;;;;5092346;28;20044;-68
2022/05/31 15:24:48;;;;;;;1.35;0.70;;;;;;;;;;5092581;28;20036;-68
2022/05/31 15:27:26;;;;;;;1.50;0.90;;;;;;;;;;5091874;28;20090;-67
2022/05/31 15:29:54;;;;;;;1.52;0.77;;;;;;;;;;5092628;28;20054;-68
2022/05/31 15:32:28;;;;;;;2.75;0.73;;;;;;;;;;5092415;28;20063;-68
2022/05/31 15:34:54;;;;;;;2.92;0.85;;;;;;;;;;5092672;28;20052;-68
2022/05/31 15:37:24;;;;;;;2.00;1.00;;;;;;;;;;5092734;28;20079;-67
2022/05/31 15:39:53;;;;;;;3.08;1.10;;;;;;;;;;5092355;28;20098;-68
2022/05/31 15:42:21;;;;;;;1.98;0.77;;;;;;;;;;5092385;28;20063;-69
2022/05/31 15:44:48;;;;;;;2.35;0.73;;;;;;;;;;5092698;28;20127;-68
2022/05/31 15:47:15;;;;;;;1.95;0.75;;;;;;;;;;5091010;28;20040;-69
2022/05/31 15:49:43;;;;;;;0.50;0.40;;;;;;;;;;5091941;28;20127;-68
2022/05/31 15:52:20;;;;;;;2.47;0.70;;;;;;;;;;5092233;28;20056;-69